createdAt,value
2018-09-15T00:01:38.137Z,7.90
2018-09-15T00:04:08.377Z,9.13
2018-09-15T00:06:38.467Z,14.23
2018-09-15T00:09:10.675Z,7.73
2018-09-15T00:11:40.784Z,10.30
2018-09-15T00:14:11.112Z,7.60
2018-09-15T00:16:41.305Z,10.17
2018-09-15T00:19:11.601Z,7.03
2018-09-15T00:21:41.993Z,5.83
2018-09-15T00:24:11.995Z,8.63
2018-09-15T00:26:42.164Z,8.37
2018-09-15T00:29:12.158Z,14.67
2018-09-15T00:31:42.212Z,5.97
2018-09-15T00:34:12.285Z,9.37
2018-09-15T00:36:42.406Z,9.60
2018-09-15T00:39:13.201Z,10.53
2018-09-15T00:41:43.351Z,10.20
2018-09-15T00:44:13.396Z,8.37
2018-09-15T00:46:43.482Z,14.33
2018-09-15T00:49:13.555Z,8.30
2018-09-15T00:51:43.656Z,6.87
2018-09-15T00:54:13.693Z,6.43
2018-09-15T00:56:43.790Z,9.63
2018-09-15T00:59:13.872Z,10.43
2018-09-15T01:01:44.026Z,10.30
2018-09-15T01:04:14.115Z,11.73
2018-09-15T01:06:44.207Z,8.23
2018-09-15T01:09:14.266Z,8.53
2018-09-15T01:11:44.362Z,6.20
2018-09-15T01:14:14.560Z,10.20
2018-09-15T01:16:44.548Z,8.77
2018-09-15T01:19:14.589Z,10.67
2018-09-15T01:21:44.701Z,7.40
2018-09-15T01:24:14.771Z,7.10
2018-09-15T01:26:44.836Z,9.37
2018-09-15T01:29:14.903Z,10.90
2018-09-15T01:31:45.017Z,7.40
2018-09-15T01:34:15.104Z,8.90
2018-09-15T01:36:45.228Z,10.17
2018-09-15T01:39:15.363Z,9.93
2018-09-15T01:41:45.573Z,9.83
2018-09-15T01:44:15.662Z,10.33
2018-09-15T01:46:45.760Z,14.90
2018-09-15T01:49:15.871Z,7.23
2018-09-15T01:51:46.027Z,8.43
2018-09-15T01:54:16.053Z,8.13
2018-09-15T01:56:46.134Z,9.40
2018-09-15T01:59:16.188Z,7.77
2018-09-15T02:01:46.267Z,8.67
2018-09-15T02:04:16.382Z,8.27
2018-09-15T02:06:46.486Z,8.47
2018-09-15T02:09:16.573Z,12.03
2018-09-15T02:11:46.711Z,7.03
2018-09-15T02:14:16.823Z,7.50
2018-09-15T02:16:46.964Z,7.20
2018-09-15T02:19:17.075Z,7.60
2018-09-15T02:21:47.215Z,13.50
2018-09-15T02:24:17.264Z,8.47
2018-09-15T02:26:47.422Z,6.97
2018-09-15T02:29:17.598Z,6.10
2018-09-15T02:31:47.693Z,6.10
2018-09-15T02:34:17.872Z,10.03
2018-09-15T02:36:48.001Z,6.73
2018-09-15T02:39:18.157Z,6.90
2018-09-15T02:41:48.268Z,6.63
2018-09-15T02:44:18.310Z,8.17
2018-09-15T02:46:48.445Z,6.07
2018-09-15T02:49:18.506Z,5.93
2018-09-15T02:51:48.681Z,8.27
2018-09-15T02:54:18.731Z,8.30
2018-09-15T02:56:48.856Z,6.70
2018-09-15T02:59:19.040Z,7.30
2018-09-15T03:01:49.124Z,6.70
2018-09-15T03:04:19.172Z,8.63
2018-09-15T03:06:49.289Z,7.43
2018-09-15T03:09:20.200Z,8.13
2018-09-15T03:11:50.305Z,5.77
2018-09-15T03:14:20.393Z,7.33
2018-09-15T03:16:50.586Z,7.47
2018-09-15T03:19:20.796Z,9.40
2018-09-15T03:21:50.964Z,6.10
2018-09-15T03:24:21.065Z,5.20
2018-09-15T03:26:51.271Z,6.47
2018-09-15T03:29:21.360Z,6.93
2018-09-15T03:31:51.854Z,6.20
2018-09-15T03:34:21.932Z,8.70
2018-09-15T03:36:52.063Z,10.00
2018-09-15T03:39:22.137Z,6.43
2018-09-15T03:41:52.376Z,7.23
2018-09-15T03:44:22.447Z,6.93
2018-09-15T03:46:52.496Z,7.13
2018-09-15T03:49:22.519Z,9.13
2018-09-15T03:51:52.643Z,8.03
2018-09-15T03:54:23.203Z,9.93
2018-09-15T03:56:53.270Z,6.47
2018-09-15T03:59:23.391Z,7.20
2018-09-15T04:01:53.484Z,6.97
2018-09-15T04:04:23.527Z,6.67
2018-09-15T04:06:53.662Z,5.17
2018-09-15T04:09:23.722Z,6.20
2018-09-15T04:11:53.814Z,9.10
2018-09-15T04:14:23.911Z,5.83
2018-09-15T04:16:54.027Z,5.70
2018-09-15T04:19:24.146Z,6.00
2018-09-15T04:21:54.313Z,6.37
2018-09-15T04:24:24.443Z,7.00
2018-09-15T04:26:54.572Z,5.07
2018-09-15T04:29:24.680Z,8.17
2018-09-15T04:31:54.745Z,5.50
2018-09-15T04:34:24.884Z,7.13
2018-09-15T04:36:54.991Z,8.73
2018-09-15T04:39:25.088Z,12.90
2018-09-15T04:41:55.245Z,6.33
2018-09-15T04:44:25.282Z,5.00
2018-09-15T04:46:55.326Z,4.43
2018-09-15T04:49:25.458Z,6.87
2018-09-15T04:51:55.599Z,9.77
2018-09-15T04:54:25.705Z,5.37
2018-09-15T04:56:55.774Z,4.93
2018-09-15T04:59:25.855Z,4.47
2018-09-15T05:01:55.910Z,9.20
2018-09-15T05:04:25.961Z,4.63
2018-09-15T05:06:56.058Z,3.83
2018-09-15T05:09:26.112Z,4.70
2018-09-15T05:11:56.219Z,6.43
2018-09-15T05:14:26.391Z,7.60
2018-09-15T05:16:56.490Z,8.83
2018-09-15T05:19:26.564Z,6.63
2018-09-15T05:21:56.655Z,7.70
2018-09-15T05:24:26.797Z,5.87
2018-09-15T05:26:56.854Z,5.00
2018-09-15T05:29:27.126Z,6.90
2018-09-15T05:31:57.270Z,10.43
2018-09-15T05:34:27.328Z,7.20
2018-09-15T05:36:57.476Z,4.50
2018-09-15T05:39:27.620Z,4.13
2018-09-15T05:41:57.801Z,4.60
2018-09-15T05:44:27.942Z,4.33
2018-09-15T05:46:58.083Z,8.43
2018-09-15T05:49:28.256Z,7.20
2018-09-15T05:51:58.343Z,5.43
2018-09-15T05:54:28.462Z,5.30
2018-09-15T05:56:58.556Z,9.20
2018-09-15T05:59:28.678Z,5.10
2018-09-15T06:01:58.928Z,10.27
2018-09-15T06:04:29.028Z,4.30
2018-09-15T06:06:59.125Z,6.27
2018-09-15T06:09:29.189Z,6.87
2018-09-15T06:11:59.327Z,3.93
2018-09-15T06:14:29.395Z,5.97
2018-09-15T06:16:59.507Z,8.13
2018-09-15T06:19:29.570Z,6.10
2018-09-15T06:21:59.644Z,4.80
2018-09-15T06:24:29.746Z,4.93
2018-09-15T06:26:59.942Z,5.17
2018-09-15T06:29:30.024Z,11.57
2018-09-15T06:32:00.182Z,4.57
2018-09-15T06:34:30.276Z,4.60
2018-09-15T06:37:00.413Z,5.10
2018-09-15T06:39:30.568Z,4.23
2018-09-15T06:42:00.722Z,6.70
2018-09-15T06:44:30.823Z,7.33
2018-09-15T06:47:01.025Z,4.37
2018-09-15T06:49:31.165Z,4.40
2018-09-15T06:52:01.287Z,6.30
2018-09-15T06:54:31.363Z,6.00
2018-09-15T06:57:01.515Z,6.43
2018-09-15T06:59:31.588Z,6.60
2018-09-15T07:02:01.677Z,4.30
2018-09-15T07:04:31.772Z,6.90
2018-09-15T07:07:01.912Z,7.80
2018-09-15T07:09:32.062Z,7.40
2018-09-15T07:12:02.181Z,4.70
2018-09-15T07:14:32.268Z,4.10
2018-09-15T07:17:02.356Z,4.53
2018-09-15T07:19:32.438Z,4.90
2018-09-15T07:22:02.510Z,7.33
2018-09-15T07:24:32.551Z,5.30
2018-09-15T07:27:02.739Z,3.93
2018-09-15T07:29:32.823Z,3.90
2018-09-15T07:32:03.039Z,5.33
2018-09-15T07:34:33.134Z,4.60
2018-09-15T07:37:03.252Z,7.13
2018-09-15T07:39:33.449Z,5.80
2018-09-15T07:42:03.530Z,5.00
2018-09-15T07:44:33.619Z,6.90
2018-09-15T07:47:03.729Z,7.43
2018-09-15T07:49:33.838Z,6.13
2018-09-15T07:52:03.970Z,10.50
2018-09-15T07:54:34.103Z,8.20
2018-09-15T07:57:04.321Z,7.90
2018-09-15T07:59:34.479Z,8.13
2018-09-15T08:02:08.563Z,7.97
2018-09-15T08:04:38.670Z,6.53
2018-09-15T08:07:08.769Z,10.13
2018-09-15T08:09:38.782Z,7.00
2018-09-15T08:12:08.897Z,7.53
2018-09-15T08:14:38.940Z,8.83
2018-09-15T08:17:09.176Z,9.90
2018-09-15T08:19:39.341Z,7.23
2018-09-15T08:22:09.449Z,11.20
2018-09-15T08:24:39.565Z,7.17
2018-09-15T08:27:09.750Z,6.97
2018-09-15T08:29:39.823Z,9.70
2018-09-15T08:32:09.968Z,8.33
2018-09-15T08:34:39.969Z,10.77
2018-09-15T08:37:10.090Z,12.27
2018-09-15T08:39:40.190Z,11.10
2018-09-15T08:42:10.311Z,12.03
2018-09-15T08:44:40.384Z,8.63
2018-09-15T08:47:10.582Z,13.60
2018-09-15T08:49:40.693Z,10.77
2018-09-15T08:52:10.881Z,10.97
2018-09-15T08:54:41.046Z,10.50
2018-09-15T08:57:11.232Z,12.20
2018-09-15T08:59:47.140Z,9.53
2018-09-15T09:02:17.318Z,7.73
2018-09-15T09:04:47.403Z,6.10
2018-09-15T09:07:17.625Z,8.57
2018-09-15T09:09:47.698Z,9.23
2018-09-15T09:12:17.762Z,8.33
2018-09-15T09:14:47.899Z,10.77
2018-09-15T09:17:18.039Z,11.53
2018-09-15T09:19:49.488Z,11.80
2018-09-15T09:22:19.543Z,13.73
2018-09-15T09:24:50.364Z,12.33
2018-09-15T09:27:20.501Z,11.27
2018-09-15T09:29:51.160Z,9.53
2018-09-15T09:32:21.353Z,9.57
2018-09-15T09:34:52.426Z,7.97
2018-09-15T09:37:22.606Z,10.43
2018-09-15T09:39:52.712Z,9.47
2018-09-15T09:42:23.609Z,8.40
2018-09-15T09:44:53.682Z,7.03
2018-09-15T09:47:25.787Z,7.67
2018-09-15T09:49:56.060Z,6.70
2018-09-15T09:52:26.319Z,7.70
2018-09-15T09:54:56.480Z,5.97
2018-09-15T09:57:26.643Z,5.33
2018-09-15T09:59:56.818Z,6.60
2018-09-15T10:02:28.160Z,9.73
2018-09-15T10:04:58.438Z,6.97
2018-09-15T10:07:28.590Z,5.70
2018-09-15T10:09:58.672Z,4.50
2018-09-15T10:12:28.805Z,4.90
2018-09-15T10:14:58.951Z,4.27
2018-09-15T10:17:29.065Z,8.73
2018-09-15T10:19:59.138Z,5.50
2018-09-15T10:22:29.281Z,11.07
2018-09-15T10:24:59.928Z,5.63
2018-09-15T10:27:30.149Z,8.33
2018-09-15T10:30:04.661Z,6.83
2018-09-15T10:32:34.770Z,6.37
2018-09-15T10:35:04.845Z,6.80
2018-09-15T10:37:35.067Z,8.17
2018-09-15T10:40:05.324Z,6.93
2018-09-15T10:42:35.698Z,8.43
2018-09-15T10:45:12.338Z,5.33
2018-09-15T10:47:43.160Z,4.37
2018-09-15T10:50:14.012Z,5.30
2018-09-15T10:52:44.156Z,5.20
2018-09-15T10:55:14.209Z,7.53
2018-09-15T10:57:44.305Z,4.77
2018-09-15T11:00:14.913Z,6.17
2018-09-15T11:02:44.980Z,5.90
2018-09-15T11:05:15.012Z,3.90
2018-09-15T11:07:45.177Z,4.07
2018-09-15T11:10:15.328Z,4.90
2018-09-15T11:12:45.508Z,7.33
2018-09-15T11:15:15.514Z,7.63
2018-09-15T11:17:46.351Z,5.67
2018-09-15T11:20:16.463Z,4.03
2018-09-15T11:22:47.270Z,6.23
2018-09-15T11:25:17.376Z,6.10
2018-09-15T11:27:49.643Z,10.20
2018-09-15T11:30:20.100Z,6.47
2018-09-15T11:32:50.202Z,7.30
2018-09-15T11:35:20.288Z,5.20
2018-09-15T11:37:50.404Z,4.00
2018-09-15T11:40:21.321Z,4.93
2018-09-15T11:42:51.610Z,4.13
2018-09-15T11:45:21.743Z,3.50
2018-09-15T11:47:51.901Z,2.63
2018-09-15T11:50:21.964Z,3.97
2018-09-15T11:52:52.103Z,3.27
2018-09-15T11:55:22.289Z,5.43
2018-09-15T11:57:52.724Z,6.37
2018-09-15T12:00:26.694Z,4.43
2018-09-15T12:02:57.272Z,7.37
2018-09-15T12:05:27.380Z,5.43
2018-09-15T12:07:57.578Z,6.00
2018-09-15T12:10:39.173Z,4.73
2018-09-15T12:13:09.702Z,5.87
2018-09-15T12:15:42.728Z,6.77
2018-09-15T12:18:12.871Z,5.10
2018-09-15T12:20:43.302Z,10.83
2018-09-15T12:23:13.685Z,5.03
2018-09-15T12:25:43.895Z,3.17
2018-09-15T12:28:14.014Z,10.03
2018-09-15T12:30:44.132Z,2.90
2018-09-15T12:33:14.201Z,2.20
2018-09-15T12:35:44.509Z,5.10
2018-09-15T12:38:14.692Z,2.73
2018-09-15T12:40:44.825Z,6.93
2018-09-15T12:43:14.922Z,3.07
2018-09-15T12:45:44.985Z,2.23
2018-09-15T12:48:15.052Z,7.50
2018-09-15T12:50:45.285Z,2.93
2018-09-15T12:53:15.357Z,1.77
2018-09-15T12:55:45.409Z,2.90
2018-09-15T12:58:15.666Z,3.73
2018-09-15T13:00:45.893Z,5.53
2018-09-15T13:03:16.055Z,4.63
2018-09-15T13:05:46.209Z,2.70
2018-09-15T13:08:17.026Z,5.33
2018-09-15T13:10:47.130Z,2.83
2018-09-15T13:13:17.212Z,2.50
2018-09-15T13:15:47.292Z,6.60
2018-09-15T13:18:17.380Z,4.90
2018-09-15T13:20:47.484Z,4.60
2018-09-15T13:23:17.591Z,2.57
2018-09-15T13:25:47.792Z,1.90
2018-09-15T13:28:17.905Z,3.20
2018-09-15T13:30:48.126Z,4.13
2018-09-15T13:33:18.223Z,2.80
2018-09-15T13:35:48.318Z,4.10
2018-09-15T13:38:18.562Z,3.93
2018-09-15T13:40:48.785Z,4.73
2018-09-15T13:43:18.980Z,3.23
2018-09-15T13:45:49.080Z,3.60
2018-09-15T13:48:19.230Z,7.23
2018-09-15T13:50:49.319Z,5.07
2018-09-15T13:53:19.544Z,2.93
2018-09-15T13:55:49.623Z,4.53
2018-09-15T13:58:19.754Z,3.50
2018-09-15T14:00:49.823Z,3.30
2018-09-15T14:03:19.890Z,4.30
2018-09-15T14:05:49.963Z,4.50
2018-09-15T14:08:20.063Z,3.90
2018-09-15T14:10:50.153Z,5.33
2018-09-15T14:13:20.358Z,4.10
2018-09-15T14:15:50.524Z,2.47
2018-09-15T14:18:21.474Z,7.70
2018-09-15T14:20:51.578Z,5.07
2018-09-15T14:23:21.762Z,5.00
2018-09-15T14:25:51.830Z,2.90
2018-09-15T14:28:21.969Z,3.30
2018-09-15T14:30:52.041Z,3.73
2018-09-15T14:33:22.149Z,8.50
2018-09-15T14:35:52.246Z,3.77
2018-09-15T14:38:22.384Z,5.13
2018-09-15T14:40:52.443Z,4.13
2018-09-15T14:43:22.552Z,5.40
2018-09-15T14:45:52.591Z,3.90
2018-09-15T14:48:22.853Z,7.20
2018-09-15T14:50:52.896Z,5.30
2018-09-15T14:53:23.012Z,7.43
2018-09-15T14:55:53.209Z,3.97
2018-09-15T14:58:23.473Z,9.07
2018-09-15T15:00:53.592Z,3.43
2018-09-15T15:03:23.770Z,4.50
2018-09-15T15:05:53.840Z,6.67
2018-09-15T15:08:24.100Z,7.70
2018-09-15T15:10:54.154Z,4.70
2018-09-15T15:13:24.470Z,5.20
2018-09-15T15:15:54.527Z,4.17
2018-09-15T15:18:26.046Z,5.03
2018-09-15T15:20:56.193Z,4.40
2018-09-15T15:23:26.356Z,6.20
2018-09-15T15:25:56.459Z,4.27
2018-09-15T15:28:26.587Z,3.83
2018-09-15T15:30:56.689Z,5.77
2018-09-15T15:33:26.838Z,7.87
2018-09-15T15:35:57.007Z,2.97
2018-09-15T15:38:27.135Z,4.23
2018-09-15T15:40:57.200Z,4.33
2018-09-15T15:43:27.357Z,3.60
2018-09-15T15:45:57.408Z,4.70
2018-09-15T15:48:27.565Z,6.17
2018-09-15T15:50:57.758Z,3.50
2018-09-15T15:53:27.896Z,5.87
2018-09-15T15:55:58.641Z,5.50
2018-09-15T15:58:28.796Z,6.40
2018-09-15T16:00:58.891Z,5.57
2018-09-15T16:03:28.970Z,5.43
2018-09-15T16:05:59.151Z,5.23
2018-09-15T16:08:29.285Z,6.77
2018-09-15T16:10:59.346Z,5.60
2018-09-15T16:13:32.454Z,3.50
2018-09-15T16:16:02.537Z,6.40
2018-09-15T16:18:32.686Z,6.50
2018-09-15T16:21:02.860Z,7.80
2018-09-15T16:23:32.961Z,4.10
2018-09-15T16:26:03.025Z,6.70
2018-09-15T16:28:33.129Z,6.30
2018-09-15T16:31:03.191Z,4.57
2018-09-15T16:33:33.295Z,9.53
2018-09-15T16:36:03.383Z,7.80
2018-09-15T16:38:33.598Z,4.50
2018-09-15T16:41:03.744Z,6.33
2018-09-15T16:43:33.818Z,5.17
2018-09-15T16:46:04.045Z,4.07
2018-09-15T16:48:34.274Z,4.47
2018-09-15T16:51:04.425Z,8.27
2018-09-15T16:53:34.581Z,5.20
2018-09-15T16:56:04.709Z,2.70
2018-09-15T16:58:34.841Z,4.07
2018-09-15T17:01:05.048Z,3.00
2018-09-15T17:03:35.212Z,3.73
2018-09-15T17:06:05.525Z,4.83
2018-09-15T17:08:35.644Z,3.00
2018-09-15T17:11:05.855Z,3.10
2018-09-15T17:13:35.900Z,3.17
2018-09-15T17:16:05.972Z,3.53
2018-09-15T17:18:36.162Z,4.20
2018-09-15T17:21:06.248Z,3.60
2018-09-15T17:23:36.436Z,2.87
2018-09-15T17:26:06.569Z,5.53
2018-09-15T17:28:36.675Z,4.33
2018-09-15T17:31:06.827Z,4.30
2018-09-15T17:33:37.017Z,6.17
2018-09-15T17:36:07.135Z,4.83
2018-09-15T17:38:37.300Z,6.80
2018-09-15T17:41:07.397Z,3.60
2018-09-15T17:43:37.516Z,3.00
2018-09-15T17:46:07.749Z,4.97
2018-09-15T17:48:37.858Z,2.00
2018-09-15T17:51:08.018Z,3.30
2018-09-15T17:53:38.167Z,6.97
2018-09-15T17:56:08.290Z,3.53
2018-09-15T17:58:38.422Z,6.10
2018-09-15T18:01:08.553Z,4.27
2018-09-15T18:03:38.697Z,5.27
2018-09-15T18:06:08.815Z,4.20
2018-09-15T18:08:38.971Z,2.83
2018-09-15T18:11:09.176Z,7.10
2018-09-15T18:13:39.287Z,5.33
2018-09-15T18:16:09.389Z,4.00
2018-09-15T18:18:39.556Z,3.73
2018-09-15T18:21:09.648Z,6.90
2018-09-15T18:23:39.731Z,6.73
2018-09-15T18:26:09.870Z,3.27
2018-09-15T18:28:39.990Z,8.63
2018-09-15T18:31:10.090Z,6.93
2018-09-15T18:33:40.241Z,3.83
2018-09-15T18:36:10.403Z,8.70
2018-09-15T18:38:40.470Z,4.13
2018-09-15T18:41:10.619Z,5.07
2018-09-15T18:43:40.704Z,7.50
2018-09-15T18:46:10.805Z,3.13
2018-09-15T18:48:40.872Z,4.10
2018-09-15T18:51:10.926Z,8.63
2018-09-15T18:53:41.125Z,7.43
2018-09-15T18:56:11.219Z,6.63
2018-09-15T18:58:41.334Z,7.13
2018-09-15T19:01:11.413Z,6.97
2018-09-15T19:03:41.563Z,6.40
2018-09-15T19:06:11.630Z,4.67
2018-09-15T19:08:41.903Z,4.57
2018-09-15T19:11:12.024Z,6.50
2018-09-15T19:13:42.154Z,6.60
2018-09-15T19:16:12.316Z,6.77
2018-09-15T19:18:42.497Z,8.33
2018-09-15T19:21:12.761Z,6.00
2018-09-15T19:23:42.915Z,7.87
2018-09-15T19:26:13.276Z,6.40
2018-09-15T19:28:43.390Z,5.67
2018-09-15T19:31:13.412Z,6.43
2018-09-15T19:33:43.486Z,8.23
2018-09-15T19:36:13.610Z,6.70
2018-09-15T19:38:43.813Z,5.97
2018-09-15T19:41:13.923Z,10.70
2018-09-15T19:43:44.044Z,5.43
2018-09-15T19:46:14.138Z,8.37
2018-09-15T19:48:44.196Z,8.03
2018-09-15T19:51:14.288Z,8.87
2018-09-15T19:53:44.360Z,8.53
2018-09-15T19:56:14.415Z,6.57
2018-09-15T19:58:44.511Z,11.10
2018-09-15T20:01:14.572Z,7.90
2018-09-15T20:03:44.646Z,7.73
2018-09-15T20:06:14.736Z,9.60
2018-09-15T20:08:44.851Z,12.80
2018-09-15T20:11:14.978Z,10.00
2018-09-15T20:13:45.204Z,11.90
2018-09-15T20:16:13.243Z,12.63
2018-09-15T20:18:41.270Z,8.10
2018-09-15T20:21:09.356Z,10.23
2018-09-15T20:23:42.304Z,12.40
2018-09-15T20:26:12.395Z,8.73
2018-09-15T20:28:42.493Z,9.23
2018-09-15T20:31:12.763Z,12.87
2018-09-15T20:33:42.933Z,8.37
2018-09-15T20:36:13.075Z,10.47
2018-09-15T20:38:43.222Z,11.60
2018-09-15T20:41:13.351Z,8.37
2018-09-15T20:43:43.648Z,11.73
2018-09-15T20:46:13.784Z,11.10
2018-09-15T20:48:43.877Z,12.40
2018-09-15T20:51:14.007Z,12.77
2018-09-15T20:53:44.096Z,11.07
2018-09-15T20:56:14.284Z,8.33
2018-09-15T20:58:44.412Z,8.50
2018-09-15T21:01:14.531Z,13.10
2018-09-15T21:03:44.729Z,8.30
2018-09-15T21:06:14.868Z,12.90
2018-09-15T21:08:44.984Z,11.90
2018-09-15T21:11:15.166Z,10.43
2018-09-15T21:13:45.244Z,12.77
2018-09-15T21:16:15.383Z,10.50
2018-09-15T21:18:46.021Z,15.13
2018-09-15T21:21:16.082Z,11.63
2018-09-15T21:23:46.120Z,11.80
2018-09-15T21:26:16.226Z,14.30
2018-09-15T21:28:46.295Z,11.53
2018-09-15T21:31:16.404Z,14.30
2018-09-15T21:33:46.439Z,12.53
2018-09-15T21:36:16.556Z,12.13
2018-09-15T21:38:46.728Z,11.13
2018-09-15T21:41:17.003Z,13.53
2018-09-15T21:43:47.153Z,13.53
2018-09-15T21:46:17.304Z,12.87
2018-09-15T21:48:47.440Z,15.20
2018-09-15T21:51:17.768Z,10.57
2018-09-15T21:53:47.954Z,10.80
2018-09-15T21:56:18.031Z,12.93
2018-09-15T21:58:48.209Z,14.73
2018-09-15T22:01:18.338Z,11.90
2018-09-15T22:03:53.475Z,10.07
2018-09-15T22:06:23.562Z,11.53
2018-09-15T22:08:53.635Z,13.83
2018-09-15T22:11:23.708Z,13.07
2018-09-15T22:13:53.764Z,17.77
2018-09-15T22:16:23.911Z,17.47
2018-09-15T22:18:53.982Z,15.53
2018-09-15T22:21:24.065Z,12.20
2018-09-15T22:23:54.255Z,11.80
2018-09-15T22:26:24.441Z,15.77
2018-09-15T22:28:54.542Z,16.63
2018-09-15T22:31:24.674Z,14.83
2018-09-15T22:33:54.889Z,18.30
2018-09-15T22:36:25.935Z,18.30
2018-09-15T22:38:56.011Z,14.60
2018-09-15T22:41:26.141Z,13.23
2018-09-15T22:43:56.249Z,14.67
2018-09-15T22:46:26.372Z,13.27
2018-09-15T22:48:56.434Z,13.57
2018-09-15T22:51:26.521Z,16.50
2018-09-15T22:53:56.647Z,13.63
2018-09-15T22:56:26.805Z,13.87
2018-09-15T22:58:56.968Z,22.93
2018-09-15T23:01:27.002Z,16.37
2018-09-15T23:04:02.158Z,18.90
2018-09-15T23:06:32.593Z,15.00
2018-09-15T23:09:02.736Z,15.67
2018-09-15T23:11:32.804Z,18.20
2018-09-15T23:14:02.845Z,17.20
2018-09-15T23:16:32.960Z,12.83
2018-09-15T23:19:03.116Z,14.40
2018-09-15T23:21:33.354Z,15.40
2018-09-15T23:24:03.520Z,15.43
2018-09-15T23:26:33.646Z,17.10
2018-09-15T23:29:03.732Z,20.43
2018-09-15T23:31:33.891Z,14.97
2018-09-15T23:34:04.048Z,14.40
2018-09-15T23:36:34.145Z,13.33
2018-09-15T23:39:05.086Z,20.53
2018-09-15T23:41:35.201Z,17.80
2018-09-15T23:44:05.342Z,21.07
2018-09-15T23:46:35.464Z,22.27
2018-09-15T23:49:05.537Z,17.17
2018-09-15T23:51:35.637Z,18.60
2018-09-15T23:54:05.694Z,18.30
2018-09-15T23:56:35.768Z,19.07
2018-09-15T23:59:06.143Z,20.97
